Time;durP1;ratioP1;P1;durP2;ratioP2;P2;SDS_P1;SDS_P2;PMS_P1;PMS_P2;Temp;Humidity;BMP_temperature;BMP_pressure;BME280_temperature;BME280_humidity;BME280_pressure;Samples;Min_cycle;Max_cycle;Signal;HPM_P1;HPM_P2
2023/05/28 00:02:45;;;;;;;8.20;3.30;;;;;;;10.36;56.69;101228.64;218708;1287;145217;-81
2023/05/28 00:07:45;;;;;;;8.30;3.20;;;;;;;10.34;57.00;101220.10;219247;1287;95628;-80
2023/05/28 00:12:46;;;;;;;7.80;3.00;;;;;;;10.31;56.57;101216.81;218608;1287;140153;-80
2023/05/28 00:17:46;;;;;;;9.40;3.50;;;;;;;10.27;56.38;101214.03;219199;1287;138336;-81
2023/05/28 00:22:46;;;;;;;10.60;3.80;;;;;;;10.24;56.54;101215.54;218437;1287;143517;-81
2023/05/28 00:27:47;;;;;;;8.50;3.50;;;;;;;10.21;56.70;101212.48;219000;1287;138504;-81
2023/05/28 00:32:47;;;;;;;8.70;3.30;;;;;;;10.19;57.18;101206.13;218664;1287;141247;-81
2023/05/28 00:37:47;;;;;;;8.50;3.40;;;;;;;10.16;57.20;101214.79;219080;1288;95714;-81
2023/05/28 00:42:48;;;;;;;7.20;2.60;;;;;;;10.12;57.32;101211.31;218644;1287;140191;-82
2023/05/28 00:47:48;;;;;;;10.00;3.00;;;;;;;10.09;57.45;101210.38;219021;1288;138199;-81
2023/05/28 00:52:51;;;;;;;9.80;3.70;;;;;;;10.06;57.63;101206.75;218505;1287;140589;-82
2023/05/28 00:57:54;;;;;;;9.40;3.00;;;;;;;10.02;57.75;101209.36;219166;1287;138166;-81
2023/05/28 01:02:54;;;;;;;10.30;3.00;;;;;;;9.98;58.36;101206.58;218708;1287;141161;-81
2023/05/28 01:07:54;;;;;;;8.40;3.20;;;;;;;9.95;58.75;101202.91;219140;1287;138805;-82
2023/05/28 01:12:56;;;;;;;10.80;4.40;;;;;;;9.91;58.93;101191.02;218791;1287;139788;-81
2023/05/28 01:17:58;;;;;;;9.90;3.50;;;;;;;9.86;59.17;101180.20;219230;1287;139724;-81
2023/05/28 01:23:05;;;;;;;11.20;4.10;;;;;;;9.82;59.19;101178.77;218416;1288;140803;-81
2023/05/28 01:28:12;;;;;;;10.60;3.60;;;;;;;9.78;59.58;101172.30;219126;1287;138262;-81
2023/05/28 01:33:13;;;;;;;11.30;4.00;;;;;;;9.74;59.60;101178.24;218420;1287;141185;-82
2023/05/28 01:38:16;;;;;;;9.70;3.80;;;;;;;9.70;59.77;101177.90;219002;1288;139215;-81
2023/05/28 01:43:16;;;;;;;8.80;3.60;;;;;;;9.66;60.08;101175.27;218599;1287;140967;-82
2023/05/28 01:48:17;;;;;;;11.40;4.20;;;;;;;9.62;60.50;101174.53;218993;1288;138538;-82
2023/05/28 01:53:17;;;;;;;10.40;4.30;;;;;;;9.58;61.26;101179.70;218562;1288;141768;-81
2023/05/28 01:58:18;;;;;;;12.40;5.10;;;;;;;9.53;61.70;101176.56;218994;1287;138840;-80
2023/05/28 02:03:18;;;;;;;13.40;5.10;;;;;;;9.47;62.16;101176.00;218516;1287;139912;-81
2023/05/28 02:08:18;;;;;;;9.90;4.40;;;;;;;9.42;62.11;101173.98;219209;1287;138646;-81
2023/05/28 02:13:19;;;;;;;13.10;4.50;;;;;;;9.34;61.70;101168.50;218617;1288;141060;-80
2023/05/28 02:18:20;;;;;;;11.10;4.20;;;;;;;9.29;61.91;101163.58;219103;1287;137892;-82
2023/05/28 02:23:20;;;;;;;9.80;4.30;;;;;;;9.24;62.37;101157.79;218501;1287;140824;-81
2023/05/28 02:28:21;;;;;;;11.50;4.00;;;;;;;9.20;62.68;101157.73;219229;1287;138025;-81
2023/05/28 02:33:22;;;;;;;10.80;4.10;;;;;;;9.16;62.67;101158.95;218708;1287;141652;-81
2023/05/28 02:38:22;;;;;;;9.70;3.90;;;;;;;9.12;63.11;101160.91;219172;1287;138081;-81
2023/05/28 02:43:22;;;;;;;11.30;4.10;;;;;;;9.09;63.10;101161.45;218484;1287;264987;-80
2023/05/28 02:48:23;;;;;;;12.60;4.40;;;;;;;9.05;63.92;101169.23;219285;1287;136735;-81
2023/05/28 02:53:23;;;;;;;11.20;3.80;;;;;;;9.00;65.15;101166.98;218415;1287;139842;-81
2023/05/28 02:58:24;;;;;;;11.40;3.90;;;;;;;8.93;65.59;101169.36;219228;1287;138124;-81
2023/05/28 03:03:24;;;;;;;11.50;4.20;;;;;;;8.86;65.90;101169.47;218712;1287;141853;-81
2023/05/28 03:08:25;;;;;;;8.40;3.50;;;;;;;8.79;65.91;101176.02;219247;1287;138031;-81
2023/05/28 03:13:25;;;;;;;11.60;3.90;;;;;;;8.74;65.80;101176.49;218798;1287;139966;-82
2023/05/28 03:18:26;;;;;;;12.60;4.40;;;;;;;8.73;66.10;101170.80;219235;1287;138140;-82
2023/05/28 03:23:26;;;;;;;10.60;3.40;;;;;;;8.72;65.27;101172.27;218391;1287;140353;-80
2023/05/28 03:28:27;;;;;;;10.40;3.70;;;;;;;8.73;65.37;101166.08;219241;1287;138174;-81
2023/05/28 03:33:27;;;;;;;12.30;3.90;;;;;;;8.75;65.30;101164.59;218695;1287;141103;-82
2023/05/28 03:38:27;;;;;;;14.70;4.00;;;;;;;8.78;65.51;101162.57;219035;1287;138717;-81
2023/05/28 03:43:28;;;;;;;10.20;3.90;;;;;;;8.84;65.38;101163.38;218780;1287;139813;-81
2023/05/28 03:48:28;;;;;;;9.80;3.90;;;;;;;8.90;65.22;101165.26;219003;1287;138823;-81
2023/05/28 03:53:28;;;;;;;9.40;3.70;;;;;;;8.94;65.16;101159.20;218659;1287;140987;-81
2023/05/28 03:58:29;;;;;;;9.60;3.80;;;;;;;9.01;65.38;101161.92;219021;1287;137819;-82
2023/05/28 04:03:29;;;;;;;9.60;3.70;;;;;;;9.11;65.06;101163.45;218751;1287;140756;-83
2023/05/28 04:08:29;;;;;;;12.90;4.00;;;;;;;9.19;64.91;101166.19;219209;1287;137864;-83
2023/05/28 04:13:30;;;;;;;9.10;3.40;;;;;;;9.26;65.23;101167.02;218802;1287;139371;-82
2023/05/28 04:18:30;;;;;;;9.70;4.60;;;;;;;9.38;65.31;101171.14;219028;1287;137982;-82
2023/05/28 04:23:31;;;;;;;10.90;4.60;;;;;;;9.51;65.35;101174.55;218540;1287;141333;-83
2023/05/28 04:28:31;;;;;;;12.60;3.60;;;;;;;9.63;65.32;101169.84;219256;1288;139206;-82
2023/05/28 04:33:32;;;;;;;9.00;3.60;;;;;;;9.76;65.57;101173.65;218665;1287;139534;-82
2023/05/28 04:38:32;;;;;;;11.60;5.10;;;;;;;9.91;65.21;101168.38;218900;1287;137852;-82
2023/05/28 04:43:35;;;;;;;11.90;3.60;;;;;;;10.05;65.41;101164.76;218524;1288;141107;-82
2023/05/28 04:48:36;;;;;;;11.40;4.40;;;;;;;10.18;65.30;101161.77;218867;1287;138361;-81
2023/05/28 04:53:37;;;;;;;11.10;3.80;;;;;;;10.33;65.15;101158.77;218653;1288;139626;-82
2023/05/28 04:58:37;;;;;;;11.00;3.90;;;;;;;10.48;64.65;101158.97;219012;1288;138578;-84
2023/05/28 05:03:37;;;;;;;10.60;4.20;;;;;;;10.69;64.40;101158.49;218397;1287;141248;-82
2023/05/28 05:08:38;;;;;;;9.80;3.70;;;;;;;10.89;64.46;101158.77;219178;1287;138495;-85
2023/05/28 05:13:38;;;;;;;8.70;3.60;;;;;;;11.14;64.46;101160.41;218457;1287;140719;-84
2023/05/28 05:18:39;;;;;;;11.60;4.50;;;;;;;11.41;64.09;101157.00;219035;1288;138028;-84
2023/05/28 05:23:40;;;;;;;10.90;4.10;;;;;;;11.81;63.84;101153.92;218474;1288;142756;-82
2023/05/28 05:28:41;;;;;;;12.80;4.50;;;;;;;12.36;63.23;101150.27;219159;1287;138342;-87
2023/05/28 05:33:42;;;;;;;7.70;3.60;;;;;;;13.01;61.73;101149.21;218476;1287;140123;-85
2023/05/28 05:38:44;;;;;;;10.60;4.30;;;;;;;13.75;59.50;101150.15;218830;1287;138349;-83
2023/05/28 05:43:45;;;;;;;10.10;3.80;;;;;;;14.49;57.25;101145.96;218839;1287;138960;-88
2023/05/28 05:48:45;;;;;;;9.60;4.00;;;;;;;15.33;56.28;101150.81;218571;1288;140976;-85
2023/05/28 05:53:46;;;;;;;9.70;3.80;;;;;;;16.23;54.62;101147.16;218902;1287;138700;-84
2023/05/28 05:58:46;;;;;;;9.60;3.20;;;;;;;17.08;52.33;101148.20;218402;1287;139758;-87
2023/05/28 06:03:47;;;;;;;9.70;3.10;;;;;;;17.86;50.59;101149.63;218905;1288;138149;-84
2023/05/28 06:08:47;;;;;;;11.90;3.80;;;;;;;18.55;48.88;101152.65;218437;1287;140336;-89
2023/05/28 06:13:49;;;;;;;8.50;3.30;;;;;;;18.88;46.06;101152.46;218925;1287;95705;-91
2023/05/28 06:18:50;;;;;;;9.00;3.10;;;;;;;19.45;45.72;101151.36;218601;1287;139517;-87
2023/05/28 06:23:50;;;;;;;10.20;3.40;;;;;;;20.17;44.70;101149.41;218847;1288;138346;-89
2023/05/28 06:28:51;;;;;;;7.90;2.70;;;;;;;20.80;43.72;101146.46;218389;1287;140360;-88
2023/05/28 06:33:51;;;;;;;10.30;3.10;;;;;;;21.19;42.07;101144.58;218930;1288;138964;-86
2023/05/28 06:38:52;;;;;;;8.50;2.60;;;;;;;21.66;41.39;101141.54;218347;1288;139765;-90
2023/05/28 06:43:52;;;;;;;7.80;2.40;;;;;;;22.10;39.42;101140.65;218913;1287;95976;-87
2023/05/28 06:48:53;;;;;;;7.70;2.90;;;;;;;22.43;38.42;101137.11;218558;1287;141576;-87
2023/05/28 06:53:53;;;;;;;5.10;2.30;;;;;;;22.85;38.68;101140.05;219020;1287;138140;-87
2023/05/28 06:58:54;;;;;;;5.10;2.40;;;;;;;23.14;37.06;101145.80;218403;1288;140155;-88
2023/05/28 07:03:55;;;;;;;9.00;2.40;;;;;;;23.31;36.01;101148.55;218818;1288;138451;-88
2023/05/28 07:08:57;;;;;;;5.10;2.00;;;;;;;23.35;35.36;101139.92;218373;1287;140642;-88
2023/05/28 07:13:58;;;;;;;6.90;1.90;;;;;;;23.65;34.85;101144.30;218814;1287;138361;-87
2023/05/28 07:19:00;;;;;;;6.20;2.10;;;;;;;24.10;35.08;101139.63;218438;1287;140645;-89
2023/05/28 07:24:00;;;;;;;6.70;2.70;;;;;;;24.60;33.26;101136.35;218974;1288;138146;-87
2023/05/28 07:29:05;;;;;;;6.20;2.10;;;;;;;24.64;32.51;101134.88;218401;1287;139446;-90
2023/05/28 07:34:07;;;;;;;5.00;1.80;;;;;;;24.67;32.41;101137.44;218902;1287;138396;-88
2023/05/28 07:39:10;;;;;;;6.00;1.90;;;;;;;25.17;32.08;101143.05;218360;1287;140893;-86
2023/05/28 07:44:11;;;;;;;4.40;2.00;;;;;;;25.30;31.06;101137.70;218788;1288;138216;-93
2023/05/28 07:49:11;;;;;;;6.10;2.00;;;;;;;25.42;30.62;101138.38;218454;1288;140184;-88
2023/05/28 07:54:12;;;;;;;7.50;2.10;;;;;;;25.31;30.09;101139.36;218892;1287;139209;-94
2023/05/28 07:59:12;;;;;;;4.80;2.00;;;;;;;25.16;30.14;101133.55;218482;1288;139632;-91
2023/05/28 08:04:13;;;;;;;6.40;2.10;;;;;;;25.38;30.99;101134.27;219052;1288;138437;-90
2023/05/28 08:09:17;;;;;;;5.60;2.00;;;;;;;25.75;29.63;101135.38;218384;1288;140048;-91
2023/05/28 08:14:18;;;;;;;7.20;2.20;;;;;;;25.83;29.82;101134.56;218850;1288;138268;-85
2023/05/28 08:19:19;;;;;;;7.40;1.50;;;;;;;26.18;29.67;101134.04;218719;1288;140677;-92
2023/05/28 08:24:20;;;;;;;4.00;1.60;;;;;;;26.34;28.42;101122.88;218924;1287;138136;-88
2023/05/28 08:29:21;;;;;;;7.60;2.00;;;;;;;26.53;29.24;101110.33;218469;1288;141123;-84
2023/05/28 08:34:22;;;;;;;8.40;2.00;;;;;;;27.22;28.68;101099.16;219168;1288;138411;-92
2023/05/28 08:39:24;;;;;;;7.30;1.90;;;;;;;27.55;27.53;101098.06;218416;1288;139725;-87
2023/05/28 08:44:24;;;;;;;5.80;1.80;;;;;;;27.82;27.70;101098.52;218811;1287;138351;-87
2023/05/28 08:49:50;;;;;;;5.60;1.90;;;;;;;28.57;27.34;101087.58;218729;1288;142363;-91
2023/05/28 08:54:51;;;;;;;;;;;;;;;29.03;26.75;101083.81;219007;1288;138567;-91
2023/05/28 08:59:53;;;;;;;6.70;1.80;;;;;;;29.60;27.31;101077.54;218663;1289;127525;-88
2023/05/28 09:04:56;;;;;;;4.80;1.90;;;;;;;30.28;26.45;101077.00;219200;1288;138387;-85
2023/05/28 09:09:57;;;;;;;6.90;2.00;;;;;;;30.14;25.10;101073.36;218669;1288;139963;-91
2023/05/28 09:14:59;;;;;;;4.90;1.80;;;;;;;30.19;25.81;101073.29;218901;1288;139192;-87
2023/05/28 09:20:04;;;;;;;7.30;1.80;;;;;;;30.50;25.17;101066.30;218403;1288;140339;-87
2023/05/28 09:25:08;;;;;;;5.40;1.70;;;;;;;30.64;25.23;101070.55;218972;1289;108235;-88
2023/05/28 09:30:09;;;;;;;5.70;1.70;;;;;;;31.29;24.33;101065.45;218360;1288;141939;-87
2023/05/28 09:35:10;;;;;;;4.50;1.70;;;;;;;31.33;23.29;101063.77;219179;1287;138340;-94
2023/05/28 09:40:11;;;;;;;5.50;1.90;;;;;;;31.43;24.95;101064.16;218300;1288;140054;-88
2023/05/28 09:45:22;;;;;;;4.60;1.80;;;;;;;32.30;24.27;101054.44;218938;1288;138130;-89
2023/05/28 09:50:22;;;;;;;5.60;1.80;;;;;;;32.59;23.59;101050.21;218373;1288;140283;-90
2023/05/28 09:55:25;;;;;;;5.80;1.60;;;;;;;33.00;22.99;101040.27;219093;1288;95788;-91
2023/05/28 10:00:31;;;;;;;6.10;1.70;;;;;;;33.15;22.28;101041.83;218555;1287;140466;-90
2023/05/28 10:05:33;;;;;;;4.90;1.80;;;;;;;33.12;22.85;101038.41;218812;1292;139191;-93
2023/05/28 10:10:34;;;;;;;6.00;1.50;;;;;;;33.48;22.08;101035.78;218382;1288;139981;-91
2023/05/28 10:15:35;;;;;;;6.90;1.70;;;;;;;33.07;21.58;101039.07;218957;1288;138377;-91
2023/05/28 10:20:36;;;;;;;4.00;1.70;;;;;;;33.04;22.12;101039.33;218311;1288;139704;-93
2023/05/28 10:25:37;;;;;;;8.30;1.80;;;;;;;33.53;22.40;101032.85;219001;1288;102766;-90
2023/05/28 10:30:38;;;;;;;5.30;2.10;;;;;;;33.59;21.21;101024.34;218634;1288;139698;-91
2023/05/28 10:35:51;;;;;;;5.60;1.80;;;;;;;33.61;20.85;101023.36;218954;1288;138119;-88
2023/05/28 10:41:00;;;;;;;5.10;2.00;;;;;;;33.02;21.03;101023.50;218332;1291;139670;-90
2023/05/28 10:46:00;;;;;;;5.50;1.60;;;;;;;33.48;22.10;101009.14;219071;1287;138399;-89
2023/05/28 10:51:04;;;;;;;5.60;1.60;;;;;;;33.82;21.04;101007.33;218613;1288;140165;-89
2023/05/28 10:56:07;;;;;;;5.40;1.70;;;;;;;33.41;21.29;101005.14;218949;1289;138721;-89
2023/05/28 11:01:11;;;;;;;6.20;1.80;;;;;;;33.33;21.65;101001.88;218457;1288;140775;-92
2023/05/28 11:06:12;;;;;;;4.50;1.70;;;;;;;33.40;21.44;101004.53;219203;1288;138094;-84
2023/05/28 11:11:14;;;;;;;5.50;1.80;;;;;;;33.50;21.28;100995.77;218402;1288;139136;-91
2023/05/28 11:16:17;;;;;;;3.40;1.50;;;;;;;33.59;21.78;100991.69;218961;1288;138165;-91
2023/05/28 11:21:18;;;;;;;5.90;2.10;;;;;;;33.78;21.56;100981.68;218285;1288;141007;-86
2023/05/28 11:26:22;;;;;;;5.90;1.80;;;;;;;33.50;21.68;100977.90;219152;1288;138284;-88
2023/05/28 11:31:23;;;;;;;4.40;1.70;;;;;;;33.72;22.07;100972.92;218399;1289;139645;-92
2023/05/28 11:36:23;;;;;;;5.60;1.60;;;;;;;33.49;20.59;100969.02;218922;1288;138451;-92
2023/05/28 11:41:25;;;;;;;5.30;1.80;;;;;;;32.58;20.84;100967.65;218556;1288;140042;-92
2023/05/28 11:46:26;;;;;;;7.40;2.00;;;;;;;32.21;21.62;100959.41;218931;1288;138218;-91
2023/05/28 11:51:27;;;;;;;4.10;1.40;;;;;;;32.28;21.38;100963.27;218395;1289;139892;-90
2023/05/28 11:56:27;;;;;;;3.90;1.70;;;;;;;32.43;21.74;100956.74;218717;1289;138404;-91
2023/05/28 12:01:39;;;;;;;5.60;1.50;;;;;;;32.89;22.34;100944.57;218734;1288;140300;-92
2023/05/28 12:06:55;;;;;;;3.40;1.50;;;;;;;33.09;21.40;100939.79;218918;1292;138147;-89
2023/05/28 12:12:11;;;;;;;4.00;1.50;;;;;;;32.44;20.55;100942.27;218587;1288;139969;-90
2023/05/28 12:17:13;;;;;;;4.30;1.50;;;;;;;31.39;21.19;100946.54;218941;1288;138495;-90
2023/05/28 12:22:15;;;;;;;6.60;1.50;;;;;;;31.25;22.17;100945.08;218602;1289;140125;-90
2023/05/28 12:27:16;;;;;;;4.20;1.70;;;;;;;31.33;23.13;100932.23;218887;1289;138350;-90
2023/05/28 12:32:16;;;;;;;3.60;1.60;;;;;;;31.68;22.46;100931.63;218422;1288;139885;-91
2023/05/28 12:37:18;;;;;;;6.40;2.40;;;;;;;31.05;22.32;100934.56;218952;1289;112514;-94
2023/05/28 12:42:18;;;;;;;5.80;1.40;;;;;;;30.59;22.35;100927.12;218375;1288;140300;-91
2023/05/28 12:47:19;;;;;;;5.10;1.60;;;;;;;30.57;23.58;100925.87;218824;1288;138042;-90
2023/05/28 12:52:20;;;;;;;5.10;2.00;;;;;;;30.93;22.32;100919.80;218418;1288;141330;-91
2023/05/28 12:57:21;;;;;;;5.40;1.90;;;;;;;30.97;22.83;100916.88;218779;1288;138234;-93
2023/05/28 13:02:22;;;;;;;5.30;1.70;;;;;;;30.94;22.64;100914.52;218364;1288;139703;-90
2023/05/28 13:07:22;;;;;;;4.10;1.80;;;;;;;30.76;23.96;100913.86;219104;1288;95617;-90
2023/05/28 13:12:24;;;;;;;4.30;1.60;;;;;;;31.04;22.70;100912.48;218454;1287;140267;-92
2023/05/28 13:17:24;;;;;;;6.50;2.20;;;;;;;30.33;22.32;100905.73;219251;1288;138110;-88
2023/05/28 13:22:25;;;;;;;4.30;1.80;;;;;;;30.17;23.22;100905.63;218690;1287;140178;-91
2023/05/28 13:27:25;;;;;;;5.80;1.80;;;;;;;30.39;23.16;100892.64;218887;1288;138382;-90
2023/05/28 13:32:26;;;;;;;7.00;1.50;;;;;;;30.19;22.96;100888.55;218495;1288;139631;-87
2023/05/28 13:37:27;;;;;;;3.50;1.60;;;;;;;30.05;24.85;100881.11;219238;1288;111310;-90
2023/05/28 13:42:28;;;;;;;5.50;1.80;;;;;;;30.31;24.00;100880.57;218674;1287;139508;-91
2023/05/28 13:47:28;;;;;;;3.90;1.50;;;;;;;29.77;22.34;100873.39;218981;1288;138798;-93
2023/05/28 13:58:30;;;;;;;7.50;2.10;;;;;;;29.44;21.97;100858.27;218160;1292;138255;-91
2023/05/28 14:03:31;;;;;;;4.60;1.60;;;;;;;29.21;24.12;100855.94;217360;1293;140804;-91
2023/05/28 14:08:31;;;;;;;4.30;1.80;;;;;;;29.29;24.77;100849.52;218041;1292;138266;-86
2023/05/28 14:13:32;;;;;;;2.90;1.50;;;;;;;29.02;24.09;100849.89;217805;1292;139580;-90
2023/05/28 14:18:33;;;;;;;6.10;1.60;;;;;;;29.05;26.02;100843.40;218210;1292;138266;-91
2023/05/28 14:23:37;;;;;;;4.40;2.00;;;;;;;29.23;26.32;100835.14;217545;1292;139408;-90
2023/05/28 14:28:38;;;;;;;3.90;1.90;;;;;;;28.93;23.94;100831.96;218544;1289;138322;-92
2023/05/28 14:33:39;;;;;;;4.10;1.90;;;;;;;27.97;23.21;100830.82;218037;1290;140530;-91
2023/05/28 14:38:39;;;;;;;4.80;2.10;;;;;;;27.64;26.46;100823.36;218575;1289;138169;-94
2023/05/28 14:43:40;;;;;;;3.70;1.40;;;;;;;27.70;25.10;100816.77;217973;1290;357553;-92
2023/05/28 14:48:40;;;;;;;5.40;1.60;;;;;;;27.63;26.70;100812.59;218601;1289;138207;-93
2023/05/28 14:53:41;;;;;;;4.10;1.90;;;;;;;27.75;27.25;100805.76;218115;1289;139549;-91
2023/05/28 14:58:41;;;;;;;4.90;1.60;;;;;;;27.79;28.22;100801.48;218656;1291;139295;-92
2023/05/28 15:03:42;;;;;;;5.10;1.70;;;;;;;27.66;25.59;100799.41;218351;1288;140126;-93
2023/05/28 15:08:43;;;;;;;3.90;1.50;;;;;;;27.43;27.77;100800.29;218845;1288;138224;-89
2023/05/28 15:13:52;;;;;;;5.30;1.70;;;;;;;27.35;25.86;100796.05;218456;1289;139819;-93
2023/05/28 15:18:53;;;;;;;6.50;1.70;;;;;;;26.78;26.56;100799.50;218237;1288;141443;-87
2023/05/28 15:23:53;;;;;;;4.10;1.60;;;;;;;26.92;27.40;100794.31;218748;1288;138600;-90
2023/05/28 15:28:54;;;;;;;6.30;1.60;;;;;;;27.05;28.53;100793.64;218418;1288;141592;-90
2023/05/28 15:33:54;;;;;;;4.70;2.20;;;;;;;26.96;27.50;100786.13;218893;1288;138339;-88
2023/05/28 15:38:55;;;;;;;6.00;1.90;;;;;;;26.83;28.87;100784.88;218347;1288;140382;-88
2023/05/28 15:43:56;;;;;;;4.10;2.00;;;;;;;26.68;27.81;100784.30;218968;1288;95710;-91
2023/05/28 15:48:57;;;;;;;4.90;2.00;;;;;;;26.35;28.17;100780.78;218394;1288;139648;-91
2023/05/28 15:53:57;;;;;;;6.50;1.60;;;;;;;25.74;27.13;100780.76;218593;1290;138172;-87
2023/05/28 15:58:58;;;;;;;5.90;2.10;;;;;;;25.25;29.49;100777.32;218326;1288;141649;-89
2023/05/28 16:03:58;;;;;;;6.60;1.80;;;;;;;25.11;28.93;100777.45;218754;1289;138173;-90
2023/05/28 16:09:02;;;;;;;5.30;1.60;;;;;;;24.90;29.17;100772.79;218142;1288;140214;-92
2023/05/28 16:14:04;;;;;;;6.30;1.70;;;;;;;24.74;29.53;100763.73;218902;1288;138167;-90
2023/05/28 16:19:05;;;;;;;3.90;1.90;;;;;;;24.58;30.16;100764.86;218244;1288;141969;-91
2023/05/28 16:24:06;;;;;;;5.40;1.50;;;;;;;24.50;30.30;100769.13;218842;1288;138468;-90
2023/05/28 16:29:07;;;;;;;3.50;1.70;;;;;;;24.28;30.34;100764.98;218205;1288;139787;-90
2023/05/28 16:34:10;;;;;;;6.00;2.30;;;;;;;24.01;31.09;100771.81;218692;1288;138132;-87
2023/05/28 16:39:10;;;;;;;5.70;2.40;;;;;;;23.80;31.38;100771.39;218421;1288;161877;-89
2023/05/28 16:44:11;;;;;;;4.60;1.90;;;;;;;23.55;31.38;100771.19;218765;1288;138635;-89
2023/05/28 16:49:12;;;;;;;5.10;1.80;;;;;;;23.30;31.22;100776.10;218377;1288;140296;-90
2023/05/28 16:54:16;;;;;;;4.80;1.80;;;;;;;23.13;31.46;100770.66;218848;1288;136897;-90
2023/05/28 16:59:16;;;;;;;6.60;2.50;;;;;;;22.96;31.39;100767.17;218291;1288;140032;-90
2023/05/28 17:04:18;;;;;;;5.00;1.80;;;;;;;22.70;31.61;100759.01;218806;1288;138241;-92
2023/05/28 17:09:19;;;;;;;4.80;1.80;;;;;;;22.54;32.52;100758.42;218178;1289;140148;-92
2023/05/28 17:14:19;;;;;;;5.80;1.40;;;;;;;22.40;32.52;100759.48;218750;1288;139788;-90
2023/05/28 17:19:20;;;;;;;6.60;2.00;;;;;;;22.19;32.75;100757.65;218407;1288;140062;-89
2023/05/28 17:24:21;;;;;;;4.60;1.80;;;;;;;21.91;32.27;100762.05;218854;1288;138141;-89
2023/05/28 17:29:21;;;;;;;5.80;1.70;;;;;;;21.71;32.76;100761.11;218342;1288;140267;-90
2023/05/28 17:34:21;;;;;;;5.20;1.80;;;;;;;21.55;32.63;100763.08;218794;1288;138239;-89
2023/05/28 17:39:22;;;;;;;7.40;1.80;;;;;;;21.42;33.31;100764.73;218190;1288;140286;-88
2023/05/28 17:44:23;;;;;;;5.80;1.80;;;;;;;21.27;33.98;100765.61;218846;1288;138635;-89
2023/05/28 17:49:24;;;;;;;5.30;1.90;;;;;;;21.16;34.05;100767.51;218298;1288;140112;-89
2023/05/28 17:54:25;;;;;;;5.50;1.90;;;;;;;21.01;34.13;100767.84;218783;1288;138618;-90
2023/05/28 17:59:26;;;;;;;7.00;1.90;;;;;;;20.83;34.45;100766.67;218312;1288;139801;-88
2023/05/28 18:04:27;;;;;;;5.50;1.90;;;;;;;20.66;34.56;100766.80;218813;1288;138507;-90
2023/05/28 18:09:27;;;;;;;5.20;2.20;;;;;;;20.47;35.69;100776.02;218115;1288;140005;-89
2023/05/28 18:14:30;;;;;;;5.30;2.00;;;;;;;20.35;35.99;100778.72;218837;1288;138296;-88
2023/05/28 18:19:30;;;;;;;4.90;2.20;;;;;;;20.20;36.40;100779.64;218226;1288;139970;-88
2023/05/28 18:24:33;;;;;;;3.80;1.50;;;;;;;20.02;36.53;100777.45;218795;1288;138169;-88
2023/05/28 18:29:34;;;;;;;4.80;1.90;;;;;;;19.83;36.38;100780.95;218282;1288;140023;-88
2023/05/28 18:34:34;;;;;;;5.40;1.80;;;;;;;19.67;37.61;100779.79;218844;1288;138456;-88
2023/05/28 18:39:35;;;;;;;7.20;2.00;;;;;;;19.49;38.26;100786.53;218228;1288;139771;-88
2023/05/28 18:44:38;;;;;;;5.00;1.60;;;;;;;19.28;38.79;100782.07;218858;1288;138454;-88
2023/05/28 18:49:39;;;;;;;5.20;1.80;;;;;;;19.07;39.32;100784.35;218350;1288;140646;-86
2023/05/28 18:54:39;;;;;;;5.20;1.80;;;;;;;18.85;40.08;100792.06;218855;1288;139165;-88
2023/05/28 18:59:41;;;;;;;6.00;2.10;;;;;;;18.65;40.85;100791.45;218300;1288;139905;-88
2023/05/28 19:04:41;;;;;;;4.20;1.70;;;;;;;18.42;41.70;100792.11;218694;1288;138468;-88
2023/05/28 19:09:41;;;;;;;8.60;2.70;;;;;;;18.21;42.40;100793.20;218350;1288;140054;-88
2023/05/28 19:14:42;;;;;;;5.30;1.90;;;;;;;18.03;43.18;100798.52;218948;1288;138476;-87
2023/05/28 19:19:43;;;;;;;7.80;1.90;;;;;;;17.85;43.32;100797.81;218451;1288;140928;-88
2023/05/28 19:24:44;;;;;;;6.10;2.80;;;;;;;17.66;43.88;100803.77;218822;1288;139274;-88
2023/05/28 19:29:45;;;;;;;6.80;3.00;;;;;;;17.48;44.43;100804.46;218275;1288;140322;-88
2023/05/28 19:34:45;;;;;;;11.70;4.20;;;;;;;17.28;45.12;100809.17;218842;1288;138294;-89
2023/05/28 19:39:46;;;;;;;9.30;3.60;;;;;;;17.07;45.20;100809.77;218327;1288;140314;-88
2023/05/28 19:44:46;;;;;;;10.00;3.30;;;;;;;16.85;45.63;100807.83;218838;1288;139517;-88
2023/05/28 19:49:47;;;;;;;7.80;2.40;;;;;;;16.64;46.37;100806.80;218348;1288;141794;-88
2023/05/28 19:54:47;;;;;;;7.20;2.80;;;;;;;16.44;46.67;100802.73;218861;1288;137962;-87
2023/05/28 19:59:47;;;;;;;8.80;2.60;;;;;;;16.25;47.14;100809.18;218318;1288;141602;-87
2023/05/28 20:04:48;;;;;;;6.70;2.30;;;;;;;16.08;47.61;100812.92;218909;1288;138336;-87
2023/05/28 20:09:48;;;;;;;7.70;2.40;;;;;;;15.90;48.05;100816.51;218354;1288;140035;-87
2023/05/28 20:14:49;;;;;;;5.70;2.90;;;;;;;15.75;48.46;100821.23;218756;1289;138539;-87
2023/05/28 20:19:52;;;;;;;6.10;1.80;;;;;;;15.56;48.78;100823.84;218362;1288;140567;-84
2023/05/28 20:24:52;;;;;;;9.60;2.40;;;;;;;15.38;49.18;100823.96;219100;1288;137922;-87
2023/05/28 20:29:53;;;;;;;7.60;2.30;;;;;;;15.21;49.94;100825.46;218365;1288;142129;-86
2023/05/28 20:34:53;;;;;;;5.50;2.30;;;;;;;15.01;50.88;100829.54;218900;1288;138235;-86
2023/05/28 20:39:57;;;;;;;4.60;1.80;;;;;;;14.81;51.23;100830.80;218175;1288;141073;-86
2023/05/28 20:45:00;;;;;;;7.10;2.20;;;;;;;14.67;52.17;100833.32;218934;1288;138225;-87
2023/05/28 20:50:01;;;;;;;8.90;2.10;;;;;;;14.54;52.92;100830.62;218132;1288;140520;-87
2023/05/28 20:55:01;;;;;;;5.20;2.20;;;;;;;14.33;53.62;100828.05;218889;1288;96744;-86
2023/05/28 21:00:02;;;;;;;6.60;2.40;;;;;;;14.16;54.07;100827.66;218658;1287;139652;-87
2023/05/28 21:05:04;;;;;;;7.10;3.00;;;;;;;14.07;55.30;100828.19;219035;1287;138334;-88
2023/05/28 21:10:09;;;;;;;12.00;3.80;;;;;;;13.92;56.10;100829.31;218523;1287;140040;-89
2023/05/28 21:15:09;;;;;;;11.90;3.30;;;;;;;13.75;56.87;100825.98;218895;1287;139308;-88
2023/05/28 21:20:12;;;;;;;7.60;2.50;;;;;;;13.56;57.52;100833.88;218399;1287;140502;-88
2023/05/28 21:25:14;;;;;;;6.80;2.50;;;;;;;13.43;58.03;100836.34;219044;1287;95658;-88
2023/05/28 21:30:15;;;;;;;8.20;2.80;;;;;;;13.34;58.52;100839.20;218514;1288;139838;-88
2023/05/28 21:35:15;;;;;;;10.30;3.00;;;;;;;13.21;58.75;100843.77;218884;1288;138349;-88
2023/05/28 21:40:20;;;;;;;9.10;2.90;;;;;;;13.08;59.66;100839.27;218308;1288;140625;-88
2023/05/28 21:45:20;;;;;;;8.60;3.20;;;;;;;12.98;60.39;100832.39;218941;1287;138183;-88
2023/05/28 21:50:24;;;;;;;9.50;3.50;;;;;;;12.85;59.99;100830.30;218397;1288;140163;-88
2023/05/28 22:28:31;;;;;;;9.40;3.30;;;;;;;12.05;64.39;100829.41;214316;1295;636804;-82
2023/05/28 22:33:33;;;;;;;9.80;3.00;;;;;;;11.91;64.47;100820.36;214260;1294;138806;-82
2023/05/28 22:38:35;;;;;;;8.90;3.20;;;;;;;11.85;65.41;100820.10;215003;1297;238508;-82
2023/05/28 22:43:35;;;;;;;9.30;3.10;;;;;;;11.74;65.42;100827.86;214939;1293;139826;-80
2023/05/28 22:48:35;;;;;;;7.20;3.00;;;;;;;11.65;66.25;100831.67;215506;1292;136907;-80
2023/05/28 22:53:39;;;;;;;10.80;3.20;;;;;;;11.54;66.42;100831.73;214596;1290;138505;-80
2023/05/28 22:58:40;;;;;;;7.40;3.20;;;;;;;11.48;66.95;100826.38;215222;1289;137477;-81
2023/05/28 23:03:41;;;;;;;6.90;3.10;;;;;;;11.44;67.30;100833.41;214602;1291;139922;-81
2023/05/28 23:08:42;;;;;;;6.80;2.70;;;;;;;11.35;66.98;100827.69;215170;1293;137264;-82
2023/05/28 23:13:43;;;;;;;6.00;2.60;;;;;;;11.27;67.35;100825.14;214831;1291;139939;-81
2023/05/28 23:18:44;;;;;;;9.00;3.50;;;;;;;11.20;67.42;100828.09;215255;1293;137247;-82
2023/05/28 23:23:45;;;;;;;12.80;3.70;;;;;;;11.14;68.20;100824.94;214622;1288;138985;-82
2023/05/28 23:28:46;;;;;;;6.70;2.70;;;;;;;11.08;68.50;100828.40;214771;1290;139079;-82